sensor_id;sensor_type;location;lat;lon;timestamp;P1;durP1;ratioP1;P2;durP2;ratioP2
35418;SDS011;21525;41.240;16.500;2023-07-09T00:01:10;11.20;;;4.88;;
35418;SDS011;21525;41.240;16.500;2023-07-09T00:03:39;9.57;;;5.18;;
35418;SDS011;21525;41.240;16.500;2023-07-09T00:06:04;11.00;;;4.90;;
35418;SDS011;21525;41.240;16.500;2023-07-09T00:08:33;6.95;;;4.32;;
35418;SDS011;21525;41.240;16.500;2023-07-09T00:10:59;8.73;;;4.72;;
35418;SDS011;21525;41.240;16.500;2023-07-09T00:13:26;10.27;;;5.35;;
35418;SDS011;21525;41.240;16.500;2023-07-09T00:15:53;12.18;;;4.35;;
35418;SDS011;21525;41.240;16.500;2023-07-09T00:18:24;12.05;;;5.30;;
35418;SDS011;21525;41.240;16.500;2023-07-09T00:20:50;11.27;;;4.70;;
35418;SDS011;21525;41.240;16.500;2023-07-09T00:23:16;12.85;;;6.80;;
35418;SDS011;21525;41.240;16.500;2023-07-09T00:28:13;9.82;;;4.50;;
35418;SDS011;21525;41.240;16.500;2023-07-09T00:30:40;8.82;;;4.45;;
35418;SDS011;21525;41.240;16.500;2023-07-09T00:33:13;9.63;;;4.45;;
35418;SDS011;21525;41.240;16.500;2023-07-09T00:35:44;8.85;;;4.80;;
35418;SDS011;21525;41.240;16.500;2023-07-09T00:38:19;13.55;;;5.28;;
35418;SDS011;21525;41.240;16.500;2023-07-09T00:43:45;10.35;;;5.60;;
35418;SDS011;21525;41.240;16.500;2023-07-09T00:48:58;7.10;;;4.55;;
35418;SDS011;21525;41.240;16.500;2023-07-09T00:51:24;14.18;;;5.45;;
35418;SDS011;21525;41.240;16.500;2023-07-09T00:53:53;13.55;;;5.30;;
35418;SDS011;21525;41.240;16.500;2023-07-09T00:56:32;9.82;;;5.00;;
35418;SDS011;21525;41.240;16.500;2023-07-09T00:59:04;9.40;;;5.10;;
35418;SDS011;21525;41.240;16.500;2023-07-09T01:01:35;8.13;;;5.30;;
35418;SDS011;21525;41.240;16.500;2023-07-09T01:04:02;13.98;;;6.15;;
35418;SDS011;21525;41.240;16.500;2023-07-09T01:06:32;13.95;;;5.55;;
35418;SDS011;21525;41.240;16.500;2023-07-09T01:09:02;10.32;;;5.60;;
35418;SDS011;21525;41.240;16.500;2023-07-09T01:11:28;11.18;;;5.78;;
35418;SDS011;21525;41.240;16.500;2023-07-09T01:13:56;14.10;;;5.90;;
35418;SDS011;21525;41.240;16.500;2023-07-09T01:16:29;10.57;;;5.07;;
35418;SDS011;21525;41.240;16.500;2023-07-09T01:18:57;10.63;;;5.85;;
35418;SDS011;21525;41.240;16.500;2023-07-09T01:21:23;11.43;;;5.50;;
35418;SDS011;21525;41.240;16.500;2023-07-09T01:23:49;10.15;;;5.57;;
35418;SDS011;21525;41.240;16.500;2023-07-09T01:26:22;14.50;;;6.03;;
35418;SDS011;21525;41.240;16.500;2023-07-09T01:28:50;9.23;;;4.97;;
35418;SDS011;21525;41.240;16.500;2023-07-09T01:31:17;10.32;;;5.53;;
35418;SDS011;21525;41.240;16.500;2023-07-09T01:33:43;11.75;;;5.18;;
35418;SDS011;21525;41.240;16.500;2023-07-09T01:36:14;10.10;;;5.47;;
35418;SDS011;21525;41.240;16.500;2023-07-09T01:41:15;7.38;;;4.75;;
35418;SDS011;21525;41.240;16.500;2023-07-09T01:43:42;7.90;;;5.18;;
35418;SDS011;21525;41.240;16.500;2023-07-09T01:46:09;9.05;;;4.85;;
35418;SDS011;21525;41.240;16.500;2023-07-09T01:48:38;10.73;;;4.80;;
35418;SDS011;21525;41.240;16.500;2023-07-09T01:51:12;9.75;;;5.47;;
35418;SDS011;21525;41.240;16.500;2023-07-09T01:53:42;10.73;;;5.60;;
35418;SDS011;21525;41.240;16.500;2023-07-09T01:56:09;11.85;;;5.43;;
35418;SDS011;21525;41.240;16.500;2023-07-09T01:58:36;11.45;;;5.32;;
35418;SDS011;21525;41.240;16.500;2023-07-09T02:01:09;11.85;;;5.22;;
35418;SDS011;21525;41.240;16.500;2023-07-09T02:03:35;12.43;;;5.68;;
35418;SDS011;21525;41.240;16.500;2023-07-09T02:06:01;9.20;;;5.10;;
35418;SDS011;21525;41.240;16.500;2023-07-09T02:08:34;9.60;;;5.55;;
35418;SDS011;21525;41.240;16.500;2023-07-09T02:11:01;9.13;;;5.38;;
35418;SDS011;21525;41.240;16.500;2023-07-09T02:13:27;11.48;;;5.47;;
35418;SDS011;21525;41.240;16.500;2023-07-09T02:15:53;9.45;;;5.53;;
35418;SDS011;21525;41.240;16.500;2023-07-09T02:18:19;11.00;;;5.47;;
35418;SDS011;21525;41.240;16.500;2023-07-09T02:20:47;9.88;;;5.55;;
35418;SDS011;21525;41.240;16.500;2023-07-09T02:23:13;11.15;;;5.38;;
35418;SDS011;21525;41.240;16.500;2023-07-09T02:25:39;9.10;;;5.55;;
35418;SDS011;21525;41.240;16.500;2023-07-09T02:28:05;10.15;;;5.57;;
35418;SDS011;21525;41.240;16.500;2023-07-09T02:30:31;9.80;;;5.28;;
35418;SDS011;21525;41.240;16.500;2023-07-09T02:32:57;10.20;;;5.43;;
35418;SDS011;21525;41.240;16.500;2023-07-09T02:35:22;8.27;;;5.05;;
35418;SDS011;21525;41.240;16.500;2023-07-09T02:37:48;9.85;;;5.63;;
35418;SDS011;21525;41.240;16.500;2023-07-09T02:40:15;7.68;;;4.85;;
35418;SDS011;21525;41.240;16.500;2023-07-09T02:42:41;11.15;;;5.10;;
35418;SDS011;21525;41.240;16.500;2023-07-09T02:45:08;9.68;;;5.22;;
35418;SDS011;21525;41.240;16.500;2023-07-09T02:47:34;10.43;;;4.97;;
35418;SDS011;21525;41.240;16.500;2023-07-09T02:50:02;8.85;;;5.10;;
35418;SDS011;21525;41.240;16.500;2023-07-09T02:52:29;10.55;;;5.90;;
35418;SDS011;21525;41.240;16.500;2023-07-09T02:54:55;10.07;;;5.32;;
35418;SDS011;21525;41.240;16.500;2023-07-09T02:57:20;9.73;;;5.00;;
35418;SDS011;21525;41.240;16.500;2023-07-09T02:59:46;10.75;;;5.45;;
35418;SDS011;21525;41.240;16.500;2023-07-09T03:02:12;11.48;;;5.47;;
35418;SDS011;21525;41.240;16.500;2023-07-09T03:04:38;12.38;;;5.57;;
35418;SDS011;21525;41.240;16.500;2023-07-09T03:07:03;11.27;;;5.35;;
35418;SDS011;21525;41.240;16.500;2023-07-09T03:09:29;15.80;;;5.90;;
35418;SDS011;21525;41.240;16.500;2023-07-09T03:11:55;10.63;;;5.13;;
35418;SDS011;21525;41.240;16.500;2023-07-09T03:14:22;11.88;;;5.82;;
35418;SDS011;21525;41.240;16.500;2023-07-09T03:16:47;10.23;;;5.30;;
35418;SDS011;21525;41.240;16.500;2023-07-09T03:19:13;31.75;;;7.60;;
35418;SDS011;21525;41.240;16.500;2023-07-09T03:21:39;14.57;;;6.10;;
35418;SDS011;21525;41.240;16.500;2023-07-09T03:24:05;8.25;;;5.20;;
35418;SDS011;21525;41.240;16.500;2023-07-09T03:26:32;12.63;;;6.05;;
35418;SDS011;21525;41.240;16.500;2023-07-09T03:28:58;10.05;;;5.30;;
35418;SDS011;21525;41.240;16.500;2023-07-09T03:31:24;10.52;;;5.05;;
35418;SDS011;21525;41.240;16.500;2023-07-09T03:33:50;9.10;;;5.65;;
35418;SDS011;21525;41.240;16.500;2023-07-09T03:36:17;10.35;;;5.43;;
35418;SDS011;21525;41.240;16.500;2023-07-09T03:38:45;12.67;;;6.07;;
35418;SDS011;21525;41.240;16.500;2023-07-09T03:41:11;71.93;;;11.63;;
35418;SDS011;21525;41.240;16.500;2023-07-09T03:43:37;56.63;;;9.98;;
35418;SDS011;21525;41.240;16.500;2023-07-09T03:46:03;11.38;;;5.38;;
35418;SDS011;21525;41.240;16.500;2023-07-09T03:48:29;10.88;;;5.63;;
35418;SDS011;21525;41.240;16.500;2023-07-09T03:50:54;10.25;;;5.72;;
35418;SDS011;21525;41.240;16.500;2023-07-09T03:53:21;10.00;;;5.72;;
35418;SDS011;21525;41.240;16.500;2023-07-09T03:55:51;11.10;;;5.60;;
35418;SDS011;21525;41.240;16.500;2023-07-09T03:58:18;12.85;;;5.25;;
35418;SDS011;21525;41.240;16.500;2023-07-09T04:00:44;19.33;;;5.72;;
35418;SDS011;21525;41.240;16.500;2023-07-09T04:03:10;13.90;;;8.43;;
35418;SDS011;21525;41.240;16.500;2023-07-09T04:05:36;13.00;;;5.90;;
35418;SDS011;21525;41.240;16.500;2023-07-09T04:08:02;10.52;;;5.38;;
35418;SDS011;21525;41.240;16.500;2023-07-09T04:10:29;14.18;;;6.35;;
35418;SDS011;21525;41.240;16.500;2023-07-09T04:12:55;10.18;;;5.57;;
35418;SDS011;21525;41.240;16.500;2023-07-09T04:15:21;10.73;;;5.65;;
35418;SDS011;21525;41.240;16.500;2023-07-09T04:17:46;11.55;;;5.75;;
35418;SDS011;21525;41.240;16.500;2023-07-09T04:20:12;8.60;;;5.95;;
35418;SDS011;21525;41.240;16.500;2023-07-09T04:22:39;9.85;;;5.35;;
35418;SDS011;21525;41.240;16.500;2023-07-09T04:25:06;13.68;;;6.03;;
35418;SDS011;21525;41.240;16.500;2023-07-09T04:27:35;10.63;;;5.97;;
35418;SDS011;21525;41.240;16.500;2023-07-09T04:30:01;12.65;;;6.85;;
35418;SDS011;21525;41.240;16.500;2023-07-09T04:32:27;11.77;;;7.57;;
35418;SDS011;21525;41.240;16.500;2023-07-09T04:34:53;11.80;;;7.03;;
35418;SDS011;21525;41.240;16.500;2023-07-09T04:37:19;10.15;;;7.00;;
35418;SDS011;21525;41.240;16.500;2023-07-09T04:39:45;13.77;;;7.53;;
35418;SDS011;21525;41.240;16.500;2023-07-09T04:42:13;9.85;;;6.57;;
35418;SDS011;21525;41.240;16.500;2023-07-09T04:44:40;15.50;;;7.93;;
35418;SDS011;21525;41.240;16.500;2023-07-09T04:47:06;12.30;;;6.40;;
35418;SDS011;21525;41.240;16.500;2023-07-09T04:49:32;15.98;;;6.90;;
35418;SDS011;21525;41.240;16.500;2023-07-09T04:51:58;14.45;;;7.30;;
35418;SDS011;21525;41.240;16.500;2023-07-09T04:54:25;17.58;;;7.35;;
35418;SDS011;21525;41.240;16.500;2023-07-09T04:56:52;17.27;;;8.13;;
35418;SDS011;21525;41.240;16.500;2023-07-09T04:59:18;15.52;;;7.75;;
35418;SDS011;21525;41.240;16.500;2023-07-09T05:01:44;16.48;;;8.25;;
35418;SDS011;21525;41.240;16.500;2023-07-09T05:04:10;16.05;;;8.35;;
35418;SDS011;21525;41.240;16.500;2023-07-09T05:06:36;17.20;;;8.43;;
35418;SDS011;21525;41.240;16.500;2023-07-09T05:09:02;15.50;;;7.47;;
35418;SDS011;21525;41.240;16.500;2023-07-09T05:11:28;13.90;;;7.97;;
35418;SDS011;21525;41.240;16.500;2023-07-09T05:13:53;17.90;;;7.70;;
35418;SDS011;21525;41.240;16.500;2023-07-09T05:16:19;21.92;;;7.30;;
35418;SDS011;21525;41.240;16.500;2023-07-09T05:18:45;16.02;;;6.88;;
35418;SDS011;21525;41.240;16.500;2023-07-09T05:21:11;14.52;;;7.05;;
35418;SDS011;21525;41.240;16.500;2023-07-09T05:23:37;21.23;;;7.32;;
35418;SDS011;21525;41.240;16.500;2023-07-09T05:26:03;13.10;;;6.85;;
35418;SDS011;21525;41.240;16.500;2023-07-09T05:28:30;17.25;;;6.90;;
35418;SDS011;21525;41.240;16.500;2023-07-09T05:30:58;13.02;;;6.53;;
35418;SDS011;21525;41.240;16.500;2023-07-09T05:33:24;15.23;;;6.70;;
35418;SDS011;21525;41.240;16.500;2023-07-09T05:35:51;15.63;;;6.85;;
35418;SDS011;21525;41.240;16.500;2023-07-09T05:38:17;15.68;;;7.68;;
35418;SDS011;21525;41.240;16.500;2023-07-09T05:40:43;13.95;;;7.13;;
35418;SDS011;21525;41.240;16.500;2023-07-09T05:43:09;16.80;;;8.05;;
35418;SDS011;21525;41.240;16.500;2023-07-09T05:45:36;22.17;;;11.85;;
35418;SDS011;21525;41.240;16.500;2023-07-09T05:48:04;17.65;;;11.55;;
35418;SDS011;21525;41.240;16.500;2023-07-09T05:50:29;15.88;;;9.00;;
35418;SDS011;21525;41.240;16.500;2023-07-09T05:52:59;24.13;;;8.45;;
35418;SDS011;21525;41.240;16.500;2023-07-09T05:55:24;15.85;;;7.07;;
35418;SDS011;21525;41.240;16.500;2023-07-09T05:57:51;18.67;;;6.75;;
35418;SDS011;21525;41.240;16.500;2023-07-09T06:00:18;17.80;;;7.50;;
35418;SDS011;21525;41.240;16.500;2023-07-09T06:02:43;16.33;;;6.05;;
35418;SDS011;21525;41.240;16.500;2023-07-09T06:05:09;15.60;;;6.60;;
35418;SDS011;21525;41.240;16.500;2023-07-09T06:07:36;15.80;;;5.97;;
35418;SDS011;21525;41.240;16.500;2023-07-09T06:10:04;15.13;;;6.22;;
35418;SDS011;21525;41.240;16.500;2023-07-09T06:12:30;15.48;;;5.95;;
35418;SDS011;21525;41.240;16.500;2023-07-09T06:14:56;15.23;;;7.10;;
35418;SDS011;21525;41.240;16.500;2023-07-09T06:17:22;18.63;;;7.78;;
35418;SDS011;21525;41.240;16.500;2023-07-09T06:19:48;12.30;;;5.90;;
35418;SDS011;21525;41.240;16.500;2023-07-09T06:22:13;12.45;;;6.22;;
35418;SDS011;21525;41.240;16.500;2023-07-09T06:24:39;11.95;;;5.72;;
35418;SDS011;21525;41.240;16.500;2023-07-09T06:27:05;12.32;;;5.53;;
35418;SDS011;21525;41.240;16.500;2023-07-09T06:29:31;9.07;;;5.53;;
35418;SDS011;21525;41.240;16.500;2023-07-09T06:31:56;11.18;;;5.05;;
35418;SDS011;21525;41.240;16.500;2023-07-09T06:34:22;9.13;;;5.32;;
35418;SDS011;21525;41.240;16.500;2023-07-09T06:36:48;11.50;;;5.93;;
35418;SDS011;21525;41.240;16.500;2023-07-09T06:39:14;9.70;;;5.05;;
35418;SDS011;21525;41.240;16.500;2023-07-09T06:41:39;8.90;;;5.70;;
35418;SDS011;21525;41.240;16.500;2023-07-09T06:44:08;10.02;;;5.70;;
35418;SDS011;21525;41.240;16.500;2023-07-09T06:46:34;9.10;;;5.30;;
35418;SDS011;21525;41.240;16.500;2023-07-09T06:49:01;9.75;;;5.70;;
35418;SDS011;21525;41.240;16.500;2023-07-09T06:51:28;9.60;;;5.15;;
35418;SDS011;21525;41.240;16.500;2023-07-09T06:53:54;11.48;;;5.13;;
35418;SDS011;21525;41.240;16.500;2023-07-09T06:56:21;8.13;;;4.85;;
35418;SDS011;21525;41.240;16.500;2023-07-09T06:58:47;14.15;;;5.65;;
35418;SDS011;21525;41.240;16.500;2023-07-09T07:01:13;12.40;;;5.15;;
35418;SDS011;21525;41.240;16.500;2023-07-09T07:03:39;13.98;;;4.72;;
35418;SDS011;21525;41.240;16.500;2023-07-09T07:06:05;6.72;;;3.90;;
35418;SDS011;21525;41.240;16.500;2023-07-09T07:08:32;9.57;;;5.35;;
35418;SDS011;21525;41.240;16.500;2023-07-09T07:10:58;7.72;;;4.90;;
35418;SDS011;21525;41.240;16.500;2023-07-09T07:13:31;9.95;;;4.82;;
35418;SDS011;21525;41.240;16.500;2023-07-09T07:16:00;6.20;;;4.22;;
35418;SDS011;21525;41.240;16.500;2023-07-09T07:18:27;7.50;;;4.38;;
35418;SDS011;21525;41.240;16.500;2023-07-09T07:20:53;10.05;;;4.70;;
35418;SDS011;21525;41.240;16.500;2023-07-09T07:23:19;14.45;;;8.73;;
35418;SDS011;21525;41.240;16.500;2023-07-09T07:25:45;9.02;;;5.63;;
35418;SDS011;21525;41.240;16.500;2023-07-09T07:28:11;9.05;;;4.50;;
35418;SDS011;21525;41.240;16.500;2023-07-09T07:30:37;10.93;;;5.43;;
35418;SDS011;21525;41.240;16.500;2023-07-09T07:33:03;9.90;;;5.32;;
35418;SDS011;21525;41.240;16.500;2023-07-09T07:35:29;7.60;;;4.63;;
35418;SDS011;21525;41.240;16.500;2023-07-09T07:37:55;10.18;;;5.18;;
35418;SDS011;21525;41.240;16.500;2023-07-09T07:40:20;8.95;;;5.53;;
35418;SDS011;21525;41.240;16.500;2023-07-09T07:42:46;8.70;;;4.93;;
35418;SDS011;21525;41.240;16.500;2023-07-09T07:45:12;7.28;;;4.47;;
35418;SDS011;21525;41.240;16.500;2023-07-09T07:47:38;8.60;;;4.78;;
35418;SDS011;21525;41.240;16.500;2023-07-09T07:50:05;9.30;;;4.95;;
35418;SDS011;21525;41.240;16.500;2023-07-09T07:52:32;8.07;;;3.92;;
35418;SDS011;21525;41.240;16.500;2023-07-09T07:54:58;7.68;;;4.65;;
35418;SDS011;21525;41.240;16.500;2023-07-09T07:57:24;14.20;;;5.82;;
35418;SDS011;21525;41.240;16.500;2023-07-09T07:59:50;14.35;;;6.47;;
35418;SDS011;21525;41.240;16.500;2023-07-09T08:02:16;10.02;;;4.82;;
35418;SDS011;21525;41.240;16.500;2023-07-09T08:04:41;9.32;;;5.93;;
35418;SDS011;21525;41.240;16.500;2023-07-09T08:07:08;7.72;;;5.03;;
35418;SDS011;21525;41.240;16.500;2023-07-09T08:09:34;8.77;;;6.13;;
35418;SDS011;21525;41.240;16.500;2023-07-09T08:12:01;8.55;;;5.30;;
35418;SDS011;21525;41.240;16.500;2023-07-09T08:14:34;7.53;;;5.25;;
35418;SDS011;21525;41.240;16.500;2023-07-09T08:17:04;6.00;;;4.35;;
35418;SDS011;21525;41.240;16.500;2023-07-09T08:19:30;8.00;;;4.55;;
35418;SDS011;21525;41.240;16.500;2023-07-09T08:21:57;6.88;;;4.43;;
35418;SDS011;21525;41.240;16.500;2023-07-09T08:24:23;7.70;;;5.28;;
35418;SDS011;21525;41.240;16.500;2023-07-09T08:26:48;7.85;;;4.70;;
35418;SDS011;21525;41.240;16.500;2023-07-09T08:29:14;8.85;;;4.65;;
35418;SDS011;21525;41.240;16.500;2023-07-09T08:31:40;8.68;;;5.00;;
35418;SDS011;21525;41.240;16.500;2023-07-09T08:34:07;8.48;;;5.57;;
35418;SDS011;21525;41.240;16.500;2023-07-09T08:36:33;8.77;;;4.40;;
35418;SDS011;21525;41.240;16.500;2023-07-09T08:39:03;5.88;;;4.38;;
35418;SDS011;21525;41.240;16.500;2023-07-09T08:41:37;8.75;;;4.30;;
35418;SDS011;21525;41.240;16.500;2023-07-09T08:47:52;12.10;;;4.95;;
35418;SDS011;21525;41.240;16.500;2023-07-09T08:50:21;8.57;;;5.30;;
35418;SDS011;21525;41.240;16.500;2023-07-09T08:52:53;6.15;;;4.35;;
35418;SDS011;21525;41.240;16.500;2023-07-09T08:55:24;6.68;;;4.32;;
35418;SDS011;21525;41.240;16.500;2023-07-09T08:58:14;6.90;;;4.18;;
35418;SDS011;21525;41.240;16.500;2023-07-09T09:00:54;6.07;;;4.28;;
35418;SDS011;21525;41.240;16.500;2023-07-09T09:05:50;7.03;;;4.25;;
35418;SDS011;21525;41.240;16.500;2023-07-09T09:11:25;9.00;;;5.55;;
35418;SDS011;21525;41.240;16.500;2023-07-09T09:13:59;9.82;;;4.88;;
35418;SDS011;21525;41.240;16.500;2023-07-09T09:16:31;8.05;;;4.93;;
35418;SDS011;21525;41.240;16.500;2023-07-09T09:19:13;7.82;;;5.07;;
35418;SDS011;21525;41.240;16.500;2023-07-09T09:21:46;10.55;;;5.40;;
35418;SDS011;21525;41.240;16.500;2023-07-09T09:24:37;6.30;;;4.22;;
35418;SDS011;21525;41.240;16.500;2023-07-09T09:27:04;6.72;;;4.35;;
35418;SDS011;21525;41.240;16.500;2023-07-09T09:29:30;7.82;;;5.50;;
35418;SDS011;21525;41.240;16.500;2023-07-09T09:31:57;7.88;;;4.40;;
35418;SDS011;21525;41.240;16.500;2023-07-09T09:34:29;5.20;;;3.88;;
35418;SDS011;21525;41.240;16.500;2023-07-09T09:36:56;7.13;;;4.53;;
35418;SDS011;21525;41.240;16.500;2023-07-09T09:41:51;9.90;;;4.10;;
35418;SDS011;21525;41.240;16.500;2023-07-09T09:44:21;6.28;;;4.07;;
35418;SDS011;21525;41.240;16.500;2023-07-09T09:46:51;8.23;;;3.90;;
35418;SDS011;21525;41.240;16.500;2023-07-09T09:49:18;10.57;;;4.63;;
35418;SDS011;21525;41.240;16.500;2023-07-09T09:51:44;6.95;;;4.03;;
35418;SDS011;21525;41.240;16.500;2023-07-09T09:54:19;5.15;;;3.20;;
35418;SDS011;21525;41.240;16.500;2023-07-09T09:56:50;7.30;;;4.00;;
35418;SDS011;21525;41.240;16.500;2023-07-09T09:59:17;6.03;;;3.40;;
35418;SDS011;21525;41.240;16.500;2023-07-09T10:01:45;7.38;;;4.28;;
35418;SDS011;21525;41.240;16.500;2023-07-09T10:04:15;8.63;;;4.30;;
35418;SDS011;21525;41.240;16.500;2023-07-09T10:06:45;5.57;;;3.95;;
35418;SDS011;21525;41.240;16.500;2023-07-09T10:11:58;9.00;;;4.65;;
35418;SDS011;21525;41.240;16.500;2023-07-09T10:14:46;7.40;;;4.30;;
35418;SDS011;21525;41.240;16.500;2023-07-09T10:17:38;6.65;;;3.92;;
35418;SDS011;21525;41.240;16.500;2023-07-09T10:20:15;9.10;;;4.68;;
35418;SDS011;21525;41.240;16.500;2023-07-09T10:26:09;6.68;;;3.90;;
35418;SDS011;21525;41.240;16.500;2023-07-09T10:39:37;9.57;;;4.47;;
35418;SDS011;21525;41.240;16.500;2023-07-09T10:42:11;7.32;;;5.10;;
35418;SDS011;21525;41.240;16.500;2023-07-09T10:44:48;6.78;;;4.53;;
35418;SDS011;21525;41.240;16.500;2023-07-09T10:52:26;7.97;;;4.20;;
35418;SDS011;21525;41.240;16.500;2023-07-09T10:55:05;7.38;;;4.32;;
35418;SDS011;21525;41.240;16.500;2023-07-09T11:00:18;9.23;;;5.00;;
35418;SDS011;21525;41.240;16.500;2023-07-09T11:05:13;7.75;;;4.88;;
35418;SDS011;21525;41.240;16.500;2023-07-09T11:07:43;7.22;;;4.30;;
35418;SDS011;21525;41.240;16.500;2023-07-09T11:10:22;7.40;;;4.30;;
35418;SDS011;21525;41.240;16.500;2023-07-09T11:13:12;7.43;;;4.55;;
35418;SDS011;21525;41.240;16.500;2023-07-09T11:15:43;7.00;;;4.50;;
35418;SDS011;21525;41.240;16.500;2023-07-09T11:18:13;7.32;;;4.25;;
35418;SDS011;21525;41.240;16.500;2023-07-09T11:20:45;8.35;;;4.28;;
35418;SDS011;21525;41.240;16.500;2023-07-09T11:23:20;8.48;;;4.22;;
35418;SDS011;21525;41.240;16.500;2023-07-09T11:25:48;6.38;;;4.38;;
35418;SDS011;21525;41.240;16.500;2023-07-09T11:28:34;8.73;;;4.80;;
35418;SDS011;21525;41.240;16.500;2023-07-09T11:31:07;8.32;;;5.05;;
35418;SDS011;21525;41.240;16.500;2023-07-09T11:36:23;9.38;;;5.13;;
35418;SDS011;21525;41.240;16.500;2023-07-09T11:38:52;8.65;;;4.38;;
35418;SDS011;21525;41.240;16.500;2023-07-09T11:41:26;8.77;;;4.70;;
35418;SDS011;21525;41.240;16.500;2023-07-09T11:46:58;7.07;;;4.13;;
35418;SDS011;21525;41.240;16.500;2023-07-09T11:49:34;7.50;;;4.20;;
35418;SDS011;21525;41.240;16.500;2023-07-09T11:52:11;6.63;;;4.38;;
35418;SDS011;21525;41.240;16.500;2023-07-09T11:54:38;7.13;;;4.28;;
35418;SDS011;21525;41.240;16.500;2023-07-09T11:57:11;5.85;;;4.00;;
35418;SDS011;21525;41.240;16.500;2023-07-09T11:59:40;5.60;;;3.70;;
35418;SDS011;21525;41.240;16.500;2023-07-09T12:02:15;7.50;;;4.35;;
35418;SDS011;21525;41.240;16.500;2023-07-09T12:04:43;7.57;;;4.30;;
35418;SDS011;21525;41.240;16.500;2023-07-09T12:07:12;6.57;;;4.45;;
35418;SDS011;21525;41.240;16.500;2023-07-09T12:09:41;8.53;;;4.90;;
35418;SDS011;21525;41.240;16.500;2023-07-09T12:12:19;6.75;;;3.97;;
35418;SDS011;21525;41.240;16.500;2023-07-09T12:14:48;8.98;;;4.72;;
35418;SDS011;21525;41.240;16.500;2023-07-09T12:17:14;7.70;;;4.22;;
35418;SDS011;21525;41.240;16.500;2023-07-09T12:19:40;8.02;;;4.40;;
35418;SDS011;21525;41.240;16.500;2023-07-09T12:22:08;6.95;;;4.70;;
35418;SDS011;21525;41.240;16.500;2023-07-09T12:24:41;11.88;;;4.45;;
35418;SDS011;21525;41.240;16.500;2023-07-09T12:27:25;6.32;;;3.95;;
35418;SDS011;21525;41.240;16.500;2023-07-09T12:29:55;6.97;;;3.65;;
35418;SDS011;21525;41.240;16.500;2023-07-09T12:32:22;6.45;;;3.72;;
35418;SDS011;21525;41.240;16.500;2023-07-09T12:34:52;5.18;;;3.72;;
35418;SDS011;21525;41.240;16.500;2023-07-09T12:37:20;5.70;;;3.90;;
35418;SDS011;21525;41.240;16.500;2023-07-09T12:39:50;11.30;;;4.50;;
35418;SDS011;21525;41.240;16.500;2023-07-09T12:42:18;5.63;;;3.88;;
35418;SDS011;21525;41.240;16.500;2023-07-09T12:44:53;8.27;;;4.45;;
35418;SDS011;21525;41.240;16.500;2023-07-09T12:47:18;14.25;;;4.65;;
35418;SDS011;21525;41.240;16.500;2023-07-09T12:49:48;7.22;;;5.03;;
35418;SDS011;21525;41.240;16.500;2023-07-09T12:52:18;6.75;;;3.97;;
35418;SDS011;21525;41.240;16.500;2023-07-09T12:54:57;8.90;;;4.15;;
35418;SDS011;21525;41.240;16.500;2023-07-09T12:57:25;5.65;;;4.13;;
35418;SDS011;21525;41.240;16.500;2023-07-09T12:59:51;9.27;;;4.80;;
35418;SDS011;21525;41.240;16.500;2023-07-09T13:02:21;8.45;;;4.38;;
35418;SDS011;21525;41.240;16.500;2023-07-09T13:04:49;9.23;;;4.40;;
35418;SDS011;21525;41.240;16.500;2023-07-09T13:09:50;7.00;;;4.18;;
35418;SDS011;21525;41.240;16.500;2023-07-09T13:12:18;8.38;;;4.00;;
35418;SDS011;21525;41.240;16.500;2023-07-09T13:14:47;6.70;;;4.57;;
35418;SDS011;21525;41.240;16.500;2023-07-09T13:17:18;8.82;;;4.10;;
35418;SDS011;21525;41.240;16.500;2023-07-09T13:19:44;8.32;;;4.55;;
35418;SDS011;21525;41.240;16.500;2023-07-09T13:22:17;7.65;;;4.25;;
35418;SDS011;21525;41.240;16.500;2023-07-09T13:24:44;8.10;;;4.65;;
35418;SDS011;21525;41.240;16.500;2023-07-09T13:27:14;8.52;;;4.65;;
35418;SDS011;21525;41.240;16.500;2023-07-09T13:29:41;7.95;;;4.13;;
35418;SDS011;21525;41.240;16.500;2023-07-09T13:32:10;6.57;;;4.38;;
35418;SDS011;21525;41.240;16.500;2023-07-09T13:34:38;7.38;;;3.80;;
35418;SDS011;21525;41.240;16.500;2023-07-09T13:37:08;7.03;;;4.18;;
35418;SDS011;21525;41.240;16.500;2023-07-09T13:39:37;9.18;;;4.38;;
35418;SDS011;21525;41.240;16.500;2023-07-09T13:42:03;7.88;;;4.80;;
35418;SDS011;21525;41.240;16.500;2023-07-09T13:44:30;8.98;;;4.35;;
35418;SDS011;21525;41.240;16.500;2023-07-09T13:46:56;8.32;;;4.57;;
35418;SDS011;21525;41.240;16.500;2023-07-09T13:49:24;7.47;;;4.18;;
35418;SDS011;21525;41.240;16.500;2023-07-09T13:51:53;10.10;;;4.78;;
35418;SDS011;21525;41.240;16.500;2023-07-09T13:54:40;7.65;;;4.00;;
35418;SDS011;21525;41.240;16.500;2023-07-09T13:57:09;8.20;;;4.50;;
35418;SDS011;21525;41.240;16.500;2023-07-09T13:59:38;7.85;;;4.38;;
35418;SDS011;21525;41.240;16.500;2023-07-09T14:02:13;8.98;;;4.40;;
35418;SDS011;21525;41.240;16.500;2023-07-09T14:04:46;6.13;;;4.38;;
35418;SDS011;21525;41.240;16.500;2023-07-09T14:07:20;5.78;;;3.90;;
35418;SDS011;21525;41.240;16.500;2023-07-09T14:09:52;6.70;;;4.57;;
35418;SDS011;21525;41.240;16.500;2023-07-09T14:12:18;5.90;;;4.18;;
35418;SDS011;21525;41.240;16.500;2023-07-09T14:14:44;8.30;;;4.53;;
35418;SDS011;21525;41.240;16.500;2023-07-09T14:17:12;8.10;;;4.97;;
35418;SDS011;21525;41.240;16.500;2023-07-09T14:19:38;9.45;;;4.82;;
35418;SDS011;21525;41.240;16.500;2023-07-09T14:22:10;9.07;;;4.72;;
35418;SDS011;21525;41.240;16.500;2023-07-09T14:24:50;8.13;;;4.50;;
35418;SDS011;21525;41.240;16.500;2023-07-09T14:27:16;7.55;;;4.85;;
35418;SDS011;21525;41.240;16.500;2023-07-09T14:29:42;7.97;;;4.53;;
35418;SDS011;21525;41.240;16.500;2023-07-09T14:32:21;7.18;;;4.68;;
35418;SDS011;21525;41.240;16.500;2023-07-09T14:35:04;8.27;;;4.72;;
35418;SDS011;21525;41.240;16.500;2023-07-09T14:37:35;9.75;;;5.10;;
35418;SDS011;21525;41.240;16.500;2023-07-09T14:40:01;8.93;;;5.20;;
35418;SDS011;21525;41.240;16.500;2023-07-09T14:42:27;6.90;;;4.88;;
35418;SDS011;21525;41.240;16.500;2023-07-09T14:44:53;7.63;;;4.35;;
35418;SDS011;21525;41.240;16.500;2023-07-09T14:47:19;13.27;;;4.90;;
35418;SDS011;21525;41.240;16.500;2023-07-09T14:49:46;12.05;;;4.53;;
35418;SDS011;21525;41.240;16.500;2023-07-09T14:52:14;10.38;;;5.25;;
35418;SDS011;21525;41.240;16.500;2023-07-09T14:54:43;12.85;;;5.40;;
35418;SDS011;21525;41.240;16.500;2023-07-09T14:57:22;11.30;;;5.20;;
35418;SDS011;21525;41.240;16.500;2023-07-09T14:59:49;8.80;;;5.05;;
35418;SDS011;21525;41.240;16.500;2023-07-09T15:05:04;9.00;;;5.03;;
35418;SDS011;21525;41.240;16.500;2023-07-09T15:07:36;9.55;;;5.30;;
35418;SDS011;21525;41.240;16.500;2023-07-09T15:10:02;8.80;;;4.95;;
35418;SDS011;21525;41.240;16.500;2023-07-09T15:12:33;10.85;;;5.43;;
35418;SDS011;21525;41.240;16.500;2023-07-09T15:17:38;11.32;;;5.53;;
35418;SDS011;21525;41.240;16.500;2023-07-09T15:20:04;9.95;;;5.70;;
35418;SDS011;21525;41.240;16.500;2023-07-09T15:22:31;10.95;;;5.57;;
35418;SDS011;21525;41.240;16.500;2023-07-09T15:24:58;13.20;;;6.03;;
35418;SDS011;21525;41.240;16.500;2023-07-09T15:27:24;12.25;;;6.50;;
35418;SDS011;21525;41.240;16.500;2023-07-09T15:29:50;12.40;;;5.78;;
35418;SDS011;21525;41.240;16.500;2023-07-09T15:32:16;8.57;;;5.10;;
35418;SDS011;21525;41.240;16.500;2023-07-09T15:34:42;11.43;;;5.55;;
35418;SDS011;21525;41.240;16.500;2023-07-09T15:37:10;10.73;;;5.53;;
35418;SDS011;21525;41.240;16.500;2023-07-09T15:39:38;12.25;;;5.93;;